Time;durP1;ratioP1;P1;durP2;ratioP2;P2;SDS_P1;SDS_P2;PMS_P1;PMS_P2;Temp;Humidity;BMP_temperature;BMP_pressure;BME280_temperature;BME280_humidity;BME280_pressure;Samples;Min_cycle;Max_cycle;Signal;HPM_P1;HPM_P2
2022/08/01 00:00:33;;;;;;;24.57;22.97;;;19.80;1.00;;;;;;4938363;29;20197;-89
2022/08/01 00:03:00;;;;;;;23.47;21.93;;;19.80;1.00;;;;;;4938153;29;20209;-89
2022/08/01 00:05:27;;;;;;;23.37;21.83;;;19.80;1.00;;;;;;4938294;29;20197;-88
2022/08/01 00:07:56;;;;;;;24.80;23.20;;;19.80;1.00;;;;;;4938273;29;20197;-88
2022/08/01 00:10:24;;;;;;;25.20;23.60;;;19.70;1.00;;;;;;4938194;29;20205;-88
2022/08/01 00:12:51;;;;;;;23.97;22.40;;;19.70;1.00;;;;;;4937890;29;20586;-89
2022/08/01 00:15:18;;;;;;;23.53;22.00;;;19.70;1.00;;;;;;4938096;29;20198;-89
2022/08/01 00:17:45;;;;;;;24.83;23.17;;;19.70;1.00;;;;;;4937788;29;20705;-89
2022/08/01 00:20:15;;;;;;;23.40;21.97;;;19.60;1.00;;;;;;4938380;29;20177;-87
2022/08/01 00:22:42;;;;;;;23.33;21.83;;;19.60;1.00;;;;;;4937510;29;20201;-89
2022/08/01 00:25:10;;;;;;;24.30;22.70;;;19.60;1.00;;;;;;4937985;29;20201;-89
2022/08/01 00:27:37;;;;;;;23.03;21.53;;;19.60;1.00;;;;;;4937829;29;20256;-88
2022/08/01 00:30:06;;;;;;;23.53;22.07;;;19.60;1.00;;;;;;4937684;29;20201;-88
2022/08/01 00:32:33;;;;;;;23.83;22.37;;;19.60;1.00;;;;;;4937464;29;20221;-90
2022/08/01 00:35:00;;;;;;;23.83;22.37;;;19.60;1.00;;;;;;4937808;29;20193;-89
2022/08/01 00:37:27;;;;;;;23.47;22.03;;;19.60;1.00;;;;;;4937635;29;20189;-88
2022/08/01 00:39:54;;;;;;;23.67;22.23;;;19.60;1.00;;;;;;4937414;29;20224;-89
2022/08/01 00:42:23;;;;;;;23.73;22.20;;;19.60;1.00;;;;;;4937087;29;20204;-89
2022/08/01 00:44:50;;;;;;;23.70;22.13;;;19.60;1.00;;;;;;4937381;29;20251;-88
2022/08/01 00:47:43;;;;;;;21.80;20.37;;;19.70;1.00;;;;;;4953805;29;20188;-92
2022/08/01 00:54:24;;;;;;;24.73;23.13;;;19.60;1.00;;;;;;4961223;28;20196;-91
2022/08/01 00:57:17;;;;;;;23.07;21.57;;;19.60;1.00;;;;;;4961430;28;20210;-89
2022/08/01 01:03:10;;;;;;;22.83;21.43;;;19.70;1.00;;;;;;4929292;29;20208;-91
2022/08/01 01:05:59;;;;;;;22.90;21.50;;;19.60;1.00;;;;;;4940461;29;20209;-91
2022/08/01 01:08:56;;;;;;;23.47;22.03;;;19.60;1.00;;;;;;4940804;29;20194;-90
2022/08/01 01:11:51;;;;;;;22.47;21.07;;;19.60;1.00;;;;;;4940093;29;20257;-91
2022/08/01 01:14:33;;;;;;;20.97;19.67;;;19.60;1.00;;;;;;4948726;29;20185;-91
2022/08/01 01:20:11;;;;;;;23.23;21.80;;;19.60;1.00;;;;;;4960871;28;20205;-88
2022/08/01 01:23:22;;;;;;;24.67;23.17;;;19.60;1.00;;;;;;4960889;28;20201;-92
2022/08/01 01:26:21;;;;;;;24.67;23.17;;;19.60;1.00;;;;;;4961070;28;20204;-92
2022/08/01 01:29:30;;;;;;;22.47;21.07;;;19.60;1.00;;;;;;4960789;28;20184;-90
2022/08/01 01:32:20;;;;;;;23.37;21.93;;;19.60;1.00;;;;;;4960278;28;20215;-91
2022/08/01 01:35:24;;;;;;;24.83;23.33;;;19.60;1.00;;;;;;4960766;28;20207;-91
2022/08/01 01:38:29;;;;;;;24.40;22.90;;;19.50;1.00;;;;;;4960454;29;20199;-91
2022/08/01 01:44:48;;;;;;;22.77;21.27;;;19.50;1.00;;;;;;4931175;29;20211;-89
2022/08/01 01:47:43;;;;;;;24.27;22.70;;;19.40;1.00;;;;;;4960774;28;20205;-91
2022/08/01 01:50:26;;;;;;;23.87;22.37;;;19.50;1.00;;;;;;4902400;29;20202;-91
2022/08/01 01:53:22;;;;;;;25.13;23.53;;;19.40;1.00;;;;;;4902818;29;20210;-89
2022/08/01 01:56:26;;;;;;;23.83;22.30;;;19.40;1.00;;;;;;4957829;29;20196;-92
2022/08/01 01:59:24;;;;;;;24.80;23.30;;;19.40;1.00;;;;;;4960735;29;20201;-91
2022/08/01 02:05:19;;;;;;;23.43;22.03;;;19.30;1.00;;;;;;4941971;29;20180;-90
2022/08/01 02:08:05;;;;;;;23.43;21.93;;;19.30;1.00;;;;;;4960297;29;20193;-92
2022/08/01 02:11:17;;;;;;;25.47;23.87;;;19.30;1.00;;;;;;4959738;28;20205;-89
2022/08/01 02:13:52;;;;;;;23.37;21.87;;;19.30;1.00;;;;;;4960105;29;20216;-89
2022/08/01 02:22:52;;;;;;;25.53;24.03;;;19.20;2.30;;;;;;4957874;29;20209;-93
2022/08/01 02:25:54;;;;;;;25.87;24.27;;;19.20;1.00;;;;;;4960377;29;20202;-91
2022/08/01 02:28:39;;;;;;;26.37;24.77;;;19.20;3.70;;;;;;4959623;28;20187;-93
2022/08/01 02:31:22;;;;;;;26.83;25.20;;;19.20;16.20;;;;;;4959999;29;20203;-91
2022/08/01 02:34:31;;;;;;;24.80;23.30;;;19.20;15.50;;;;;;4959671;29;20297;-91
2022/08/01 02:37:24;;;;;;;24.87;23.37;;;19.10;17.90;;;;;;4959648;29;20185;-92
2022/08/01 02:40:13;;;;;;;27.93;26.23;;;19.10;20.10;;;;;;4959629;29;20191;-90
2022/08/01 02:43:04;;;;;;;24.67;23.17;;;19.10;20.30;;;;;;4959576;28;20209;-94
2022/08/01 02:48:55;;;;;;;26.77;25.17;;;19.10;53.40;;;;;;4956847;29;20193;-91
2022/08/01 02:51:42;;;;;;;27.23;25.50;;;19.00;44.00;;;;;;4953043;28;20214;-89
2022/08/01 02:54:45;;;;;;;24.03;22.47;;;18.90;71.70;;;;;;4959790;28;20200;-91
2022/08/01 02:57:40;;;;;;;26.67;25.07;;;18.90;48.90;;;;;;4952073;28;20191;-90
2022/08/01 03:01:09;;;;;;;26.13;24.53;;;18.90;49.10;;;;;;4959063;28;20192;-91
2022/08/01 03:04:24;;;;;;;26.43;24.77;;;18.90;61.80;;;;;;4901366;29;20211;-91
2022/08/01 03:07:17;;;;;;;27.43;25.73;;;18.90;61.30;;;;;;4900916;29;20833;-93
2022/08/01 03:10:27;;;;;;;25.03;23.50;;;18.90;53.20;;;;;;4901951;29;20211;-91
2022/08/01 03:13:12;;;;;;;24.63;23.10;;;18.90;71.90;;;;;;4907916;29;20229;-90
2022/08/01 03:16:03;;;;;;;27.67;25.93;;;18.90;72.40;;;;;;4967844;28;20170;-91
2022/08/01 03:24:18;;;;;;;23.07;21.67;;;18.90;63.90;;;;;;4947392;29;20195;-92
2022/08/01 03:26:55;;;;;;;23.33;21.90;;;19.00;53.40;;;;;;4959944;28;20205;-93
2022/08/01 03:29:33;;;;;;;25.30;23.80;;;19.00;54.10;;;;;;4959462;29;20200;-91
2022/08/01 03:32:33;;;;;;;26.43;23.93;;;19.00;54.80;;;;;;4959588;28;20201;-91
2022/08/01 03:35:32;;;;;;;24.30;22.70;;;19.10;51.50;;;;;;4959657;28;20201;-90
2022/08/01 03:38:29;;;;;;;26.93;25.33;;;19.10;61.80;;;;;;4959108;28;20205;-92
2022/08/01 03:41:15;;;;;;;26.30;24.70;;;19.10;78.30;;;;;;4959473;28;20197;-90
2022/08/01 03:43:53;;;;;;;28.00;26.27;;;19.00;51.40;;;;;;4925685;29;20196;-86
2022/08/01 03:46:29;;;;;;;23.27;21.83;;;19.10;53.50;;;;;;4951751;29;20201;-92
2022/08/01 03:49:01;;;;;;;28.30;26.50;;;19.10;51.10;;;;;;4939678;29;20205;-89
2022/08/01 03:51:31;;;;;;;22.40;21.00;;;19.10;53.90;;;;;;4928688;29;20602;-88
2022/08/01 03:54:00;;;;;;;21.47;20.13;;;19.10;50.90;;;;;;4926030;29;20205;-90
2022/08/01 03:56:30;;;;;;;21.33;20.00;;;19.10;59.20;;;;;;4942236;29;20192;-89
2022/08/01 03:58:58;;;;;;;22.57;21.17;;;19.10;55.00;;;;;;4938929;29;20256;-88
2022/08/01 04:01:27;;;;;;;22.67;21.27;;;19.10;55.00;;;;;;4937022;29;20193;-89
2022/08/01 04:03:55;;;;;;;24.03;22.53;;;19.10;58.00;;;;;;4933785;29;20614;-88
2022/08/01 04:06:22;;;;;;;21.87;20.53;;;19.10;58.40;;;;;;4938658;29;20244;-88
2022/08/01 04:08:56;;;;;;;21.07;19.77;;;19.00;61.30;;;;;;4921415;29;20265;-87
2022/08/01 04:11:25;;;;;;;21.87;20.53;;;19.00;61.00;;;;;;4933978;29;20174;-87
2022/08/01 04:13:53;;;;;;;23.00;21.60;;;19.00;69.90;;;;;;4926789;29;20701;-87
2022/08/01 04:16:20;;;;;;;25.23;23.73;;;19.00;67.00;;;;;;4939416;29;20227;-88
2022/08/01 04:18:49;;;;;;;21.03;19.73;;;19.10;79.40;;;;;;4955687;28;20275;-87
2022/08/01 04:21:43;;;;;;;18.93;17.73;;;19.20;86.00;;;;;;4958061;28;20185;-90
2022/08/01 04:27:47;;;;;;;28.05;26.25;;;19.70;97.30;;;;;;5623990;23;20467;-91
2022/08/01 04:33:23;;;;;;;22.03;20.63;;;20.80;93.50;;;;;;4989295;23;20232;-94
2022/08/01 04:45:08;;;;;;;22.93;21.43;;;20.90;68.40;;;;;;5387456;23;20230;-88
2022/08/01 04:47:36;;;;;;;23.23;21.73;;;20.90;59.40;;;;;;4922224;29;20703;-89
2022/08/01 04:50:07;;;;;;;25.17;23.17;;;20.80;63.90;;;;;;4923374;29;20265;-89
2022/08/01 04:52:38;;;;;;;25.97;24.27;;;20.80;70.30;;;;;;4924439;29;20249;-89
2022/08/01 04:55:07;;;;;;;24.50;22.90;;;20.70;60.10;;;;;;4920677;29;20204;-88
2022/08/01 04:57:37;;;;;;;23.47;21.97;;;20.70;60.10;;;;;;4921102;29;20204;-90
2022/08/01 05:00:06;;;;;;;20.93;19.53;;;20.70;61.80;;;;;;4919579;29;20205;-88
2022/08/01 05:02:33;;;;;;;22.63;21.13;;;20.70;60.80;;;;;;4919287;29;20651;-89
2022/08/01 05:05:00;;;;;;;24.47;22.87;;;20.60;58.60;;;;;;4913172;29;20215;-88
2022/08/01 05:07:27;;;;;;;24.73;23.13;;;20.60;61.80;;;;;;4914842;29;20201;-88
2022/08/01 05:09:56;;;;;;;23.60;22.07;;;20.60;58.50;;;;;;4917880;29;20260;-91
2022/08/01 05:12:23;;;;;;;26.40;24.70;;;20.60;57.90;;;;;;4921195;29;20231;-88
2022/08/01 05:14:50;;;;;;;24.83;23.23;;;20.60;73.50;;;;;;4925609;29;20229;-88
2022/08/01 05:17:20;;;;;;;23.87;22.17;;;20.60;65.10;;;;;;4932925;29;20197;-92
2022/08/01 05:20:16;;;;;;;24.40;22.80;;;20.60;66.20;;;;;;4926075;29;20197;-89
2022/08/01 05:23:03;;;;;;;24.60;22.90;;;20.60;66.50;;;;;;4927463;29;20193;-94
2022/08/01 05:25:33;;;;;;;24.20;22.60;;;20.70;64.10;;;;;;4932970;29;20214;-88
2022/08/01 05:28:00;;;;;;;25.80;24.00;;;20.70;62.10;;;;;;4934192;29;20178;-91
2022/08/01 05:30:27;;;;;;;21.40;20.00;;;20.80;61.20;;;;;;4927150;29;20186;-89
2022/08/01 05:32:54;;;;;;;21.67;20.27;;;20.80;67.30;;;;;;4928188;29;20297;-89
2022/08/01 05:35:37;;;;;;;22.17;20.70;;;20.80;71.40;;;;;;4930366;29;20206;-92
2022/08/01 05:38:04;;;;;;;22.43;20.93;;;20.90;69.60;;;;;;4926763;29;20166;-89
2022/08/01 05:40:32;;;;;;;21.63;20.20;;;21.00;67.20;;;;;;4929257;29;20691;-89
2022/08/01 05:43:14;;;;;;;23.33;21.80;;;21.20;67.40;;;;;;4929641;29;20185;-93
2022/08/01 05:45:50;;;;;;;22.90;21.33;;;21.40;69.80;;;;;;4928376;29;20225;-90
2022/08/01 05:48:22;;;;;;;23.20;21.63;;;21.70;67.30;;;;;;4931324;29;20187;-90
2022/08/01 05:51:15;;;;;;;21.00;19.57;;;21.90;64.80;;;;;;4939244;29;20189;-93
2022/08/01 05:54:07;;;;;;;24.67;22.97;;;22.30;60.00;;;;;;4934785;29;20697;-92
2022/08/01 05:57:19;;;;;;;24.37;22.73;;;22.50;61.40;;;;;;4937652;29;20194;-92
2022/08/01 05:59:46;;;;;;;22.53;21.03;;;22.70;55.80;;;;;;4928122;29;20332;-91
2022/08/01 06:02:13;;;;;;;25.07;22.80;;;22.80;51.70;;;;;;4921272;29;20205;-90
2022/08/01 06:04:40;;;;;;;25.67;23.87;;;22.90;51.00;;;;;;4920010;29;20198;-89
2022/08/01 06:10:07;;;;;;;;;;;23.50;48.00;;;;;;4919891;29;20208;-89
2022/08/01 06:12:36;;;;;;;;;;;23.90;49.40;;;;;;4918165;29;19960;-90
2022/08/01 06:15:03;;;;;;;;;;;24.30;44.30;;;;;;4927637;29;19923;-90
2022/08/01 06:17:30;;;;;;;;;;;24.80;44.80;;;;;;4921643;29;19907;-91
2022/08/01 06:19:57;;;;;;;25.90;24.17;;;25.50;43.70;;;;;;4917745;29;20399;-88
2022/08/01 06:22:24;;;;;;;31.10;29.07;;;25.90;34.70;;;;;;4920248;29;20281;-89
2022/08/01 06:24:51;;;;;;;27.77;26.10;;;26.10;30.60;;;;;;4921165;29;20560;-88
2022/08/01 06:27:18;;;;;;;;;;;26.20;26.60;;;;;;4922632;29;20055;-89
2022/08/01 06:29:46;;;;;;;;;;;26.30;26.00;;;;;;4921787;29;20389;-90
2022/08/01 06:32:13;;;;;;;28.70;26.97;;;26.70;24.10;;;;;;4924060;29;20228;-90
2022/08/01 06:34:40;;;;;;;33.80;31.80;;;27.60;21.70;;;;;;4927944;29;20236;-89
2022/08/01 06:37:07;;;;;;;;;;;28.80;29.80;;;;;;4928973;29;20194;-88
2022/08/01 06:39:34;;;;;;;;;;;29.60;19.10;;;;;;4928533;29;19923;-91
2022/08/01 06:42:01;;;;;;;679.60;374.80;;;30.20;8.50;;;;;;4925223;29;20045;-91
2022/08/01 06:44:28;;;;;;;683.13;340.23;;;30.90;1.60;;;;;;4922930;29;20206;-88
2022/08/01 06:46:58;;;;;;;14.95;13.60;;;31.20;1.00;;;;;;4903613;29;20660;-91
2022/08/01 06:49:25;;;;;;;;;;;30.90;1.00;;;;;;4903968;29;20210;-88
2022/08/01 06:51:52;;;;;;;21.58;17.98;;;30.60;1.00;;;;;;4902670;29;20065;-89
2022/08/01 06:54:28;;;;;;;28.08;23.88;;;30.20;1.00;;;;;;4909509;29;20691;-90
2022/08/01 06:57:01;;;;;;;20.90;17.08;;;29.80;1.00;;;;;;4922707;29;20213;-93
2022/08/01 06:59:46;;;;;;;18.57;16.93;;;29.40;1.00;;;;;;4928816;29;20189;-91
2022/08/01 07:02:27;;;;;;;;;;;29.00;1.00;;;;;;4927956;29;20060;-95
2022/08/01 07:04:59;;;;;;;26.45;24.33;;;28.80;1.00;;;;;;4918498;29;20207;-88
2022/08/01 07:07:47;;;;;;;280.10;165.75;;;28.60;1.00;;;;;;4929468;29;20194;-90
2022/08/01 07:10:14;;;;;;;;;;;28.50;1.00;;;;;;4919812;29;20068;-89
2022/08/01 07:12:40;;;;;;;;;;;28.50;1.00;;;;;;4924631;29;20008;-88
2022/08/01 07:15:08;;;;;;;;;;;28.30;1.00;;;;;;4925892;29;19931;-90
2022/08/01 07:17:37;;;;;;;;;;;28.10;1.00;;;;;;4919710;29;19934;-89
2022/08/01 07:20:06;;;;;;;;;;;27.90;1.00;;;;;;4917719;29;19930;-88
2022/08/01 07:22:33;;;;;;;49.67;32.93;;;27.80;1.00;;;;;;4917268;29;20191;-87
2022/08/01 07:28:36;;;;;;;;;;;27.70;1.00;;;;;;4921840;29;19986;-90
2022/08/01 07:31:12;;;;;;;;;;;27.60;1.00;;;;;;4904942;29;19929;-92
2022/08/01 07:33:52;;;;;;;;;;;27.70;1.00;;;;;;4920306;29;19997;-91
2022/08/01 07:36:39;;;;;;;;;;;27.70;1.00;;;;;;4920919;29;20357;-91
2022/08/01 07:39:39;;;;;;;;;;;;;;;;;;;;;
2022/08/01 07:42:30;;;;;;;23.57;22.03;;;28.00;1.00;;;;;;4916947;29;20211;-91
2022/08/01 07:45:29;;;;;;;28.40;26.33;;;29.00;1.00;;;;;;4919960;29;20221;-89
2022/08/01 07:48:28;;;;;;;26.13;24.00;;;29.60;1.00;;;;;;4920236;29;20654;-92
2022/08/01 07:51:39;;;;;;;33.23;30.80;;;29.80;1.00;;;;;;4861921;29;21014;-90
2022/08/01 07:54:13;;;;;;;33.93;31.67;;;29.70;1.00;;;;;;4922996;29;20245;-90
2022/08/01 07:57:07;;;;;;;37.33;34.77;;;29.60;1.00;;;;;;4923369;29;20202;-92
2022/08/01 08:08:48;;;;;;;39.77;37.03;;;28.60;1.00;;;;;;4905234;29;20263;-91
2022/08/01 08:14:30;;;;;;;38.53;35.67;;;28.30;1.00;;;;;;4937806;29;20240;-90
2022/08/01 08:17:15;;;;;;;38.30;35.50;;;28.50;1.00;;;;;;4924568;29;20209;-92
2022/08/01 08:20:01;;;;;;;35.97;33.73;;;28.60;1.00;;;;;;4925300;29;20206;-89
2022/08/01 08:22:37;;;;;;;32.80;30.57;;;28.70;1.00;;;;;;4925961;29;20198;-91
2022/08/01 08:27:49;;;;;;;37.10;34.80;;;29.20;1.00;;;;;;4918509;29;20260;-91
2022/08/01 08:30:17;;;;;;;33.67;31.60;;;29.30;1.00;;;;;;4918939;29;20205;-89
2022/08/01 08:32:45;;;;;;;35.27;32.90;;;29.50;1.00;;;;;;4919420;29;20210;-87
2022/08/01 08:35:12;;;;;;;38.10;35.50;;;29.70;1.00;;;;;;4918509;29;20214;-89
2022/08/01 09:04:20;;;;;;;21.67;20.15;;;32.40;1.00;;;;;;5291829;23;20349;-92
2022/08/01 09:07:01;;;;;;;29.30;27.27;;;32.30;1.00;;;;;;4942054;29;20197;-90
2022/08/01 09:09:56;;;;;;;21.45;19.75;;;32.10;1.00;;;;;;4943424;29;20192;-89
2022/08/01 09:13:11;;;;;;;19.35;17.73;;;32.00;1.00;;;;;;4943848;29;20613;-90
2022/08/01 09:19:44;;;;;;;30.17;28.13;;;32.10;1.00;;;;;;4942240;29;20183;-91
2022/08/01 09:22:41;;;;;;;39.63;37.17;;;32.20;1.00;;;;;;4942974;29;20221;-91
